createdAt,value
2018-03-29T00:00:43.906Z,15.70
2018-03-29T00:02:36.829Z,16.40
2018-03-29T00:03:36.835Z,16.30
2018-03-29T00:05:29.784Z,17.00
2018-03-29T00:06:29.770Z,17.70
2018-03-29T00:08:22.698Z,16.60
2018-03-29T00:09:22.703Z,16.40
2018-03-29T00:11:15.646Z,16.80
2018-03-29T00:12:15.636Z,16.40
2018-03-29T00:14:08.564Z,17.10
2018-03-29T00:15:08.578Z,16.90
2018-03-29T00:17:01.529Z,16.60
2018-03-29T00:18:01.500Z,16.10
2018-03-29T00:19:54.449Z,15.90
2018-03-29T00:20:54.429Z,16.00
2018-03-29T00:22:47.349Z,15.10
2018-03-29T00:23:47.359Z,15.80
2018-03-29T00:25:40.306Z,15.60
2018-03-29T00:26:40.293Z,16.10
2018-03-29T00:28:33.220Z,15.00
2018-03-29T00:29:33.229Z,15.90
2018-03-29T00:31:26.174Z,15.90
2018-03-29T00:32:26.165Z,16.10
2018-03-29T00:34:19.099Z,16.30
2018-03-29T00:35:19.108Z,16.30
2018-03-29T00:37:13.051Z,16.10
2018-03-29T00:38:13.047Z,16.30
2018-03-29T00:40:05.990Z,16.90
2018-03-29T00:41:05.983Z,17.40
2018-03-29T00:42:58.911Z,17.60
2018-03-29T00:43:58.915Z,17.20
2018-03-29T00:45:51.864Z,18.40
2018-03-29T00:46:51.859Z,18.60
2018-03-29T00:48:44.778Z,19.50
2018-03-29T00:49:44.789Z,19.00
2018-03-29T00:51:38.238Z,20.40
2018-03-29T00:52:38.229Z,20.40
2018-03-29T00:54:31.154Z,20.70
2018-03-29T00:55:31.163Z,21.30
2018-03-29T00:57:24.111Z,22.40
2018-03-29T00:58:24.091Z,22.20
2018-03-29T01:00:17.056Z,22.50
2018-03-29T01:01:17.047Z,22.10
2018-03-29T01:03:09.963Z,22.70
2018-03-29T01:04:09.970Z,22.50
2018-03-29T01:06:02.915Z,23.30
2018-03-29T01:07:02.905Z,23.00
2018-03-29T01:08:55.834Z,22.50
2018-03-29T01:09:55.835Z,22.50
2018-03-29T01:11:48.789Z,22.60
2018-03-29T01:12:48.777Z,21.70
2018-03-29T01:14:41.703Z,21.70
2018-03-29T01:15:41.723Z,22.40
2018-03-29T01:17:34.668Z,21.80
2018-03-29T01:18:34.676Z,21.10
2018-03-29T01:20:27.594Z,21.80
2018-03-29T01:21:27.582Z,21.20
2018-03-29T01:23:20.531Z,21.40
2018-03-29T01:24:20.525Z,21.20
2018-03-29T01:26:13.473Z,20.90
2018-03-29T01:27:13.459Z,21.00
2018-03-29T01:29:06.397Z,21.10
2018-03-29T01:30:06.420Z,20.80
2018-03-29T01:31:59.341Z,22.10
2018-03-29T01:32:59.327Z,21.00
2018-03-29T01:34:52.259Z,20.50
2018-03-29T01:35:52.266Z,19.60
2018-03-29T01:37:45.209Z,20.30
2018-03-29T01:38:45.202Z,20.50
2018-03-29T01:40:38.136Z,20.70
2018-03-29T01:41:38.125Z,20.70
2018-03-29T01:43:31.052Z,21.30
2018-03-29T01:44:31.060Z,21.60
2018-03-29T01:46:24.001Z,22.00
2018-03-29T01:47:24.003Z,21.90
2018-03-29T01:49:16.931Z,21.40
2018-03-29T01:50:16.936Z,21.30
2018-03-29T01:52:09.870Z,21.10
2018-03-29T01:53:09.860Z,21.60
2018-03-29T01:55:02.789Z,21.60
2018-03-29T01:56:02.799Z,21.20
2018-03-29T01:57:55.745Z,21.70
2018-03-29T01:58:55.737Z,21.50
2018-03-29T02:00:48.664Z,21.60
2018-03-29T02:01:48.669Z,22.00
2018-03-29T02:03:41.613Z,21.40
2018-03-29T02:04:41.596Z,22.20
2018-03-29T02:06:34.546Z,21.00
2018-03-29T02:07:34.534Z,21.20
2018-03-29T02:09:27.471Z,21.30
2018-03-29T02:10:27.477Z,20.90
2018-03-29T02:12:20.423Z,20.60
2018-03-29T02:13:20.423Z,20.90
2018-03-29T02:15:13.338Z,21.50
2018-03-29T02:16:13.348Z,21.60
2018-03-29T02:18:06.297Z,21.20
2018-03-29T02:19:06.284Z,21.60
2018-03-29T02:20:59.230Z,21.20
2018-03-29T02:21:59.234Z,22.00
2018-03-29T02:23:52.178Z,21.20
2018-03-29T02:24:52.169Z,20.60
2018-03-29T02:26:45.112Z,20.50
2018-03-29T02:27:45.103Z,20.60
2018-03-29T02:29:38.033Z,20.50
2018-03-29T02:30:38.046Z,20.20
2018-03-29T02:32:30.982Z,20.70
2018-03-29T02:33:30.980Z,20.00
2018-03-29T02:35:23.910Z,19.50
2018-03-29T02:36:23.907Z,20.10
2018-03-29T02:38:16.855Z,19.80
2018-03-29T02:39:16.843Z,20.00
2018-03-29T02:41:09.768Z,19.80
2018-03-29T02:42:09.776Z,19.40
2018-03-29T02:44:02.726Z,19.00
2018-03-29T02:45:02.718Z,18.80
2018-03-29T02:46:55.662Z,19.40
2018-03-29T02:47:55.650Z,19.80
2018-03-29T02:49:48.581Z,18.40
2018-03-29T02:50:48.589Z,19.30
2018-03-29T02:52:41.550Z,18.90
2018-03-29T02:53:41.541Z,19.50
2018-03-29T02:55:34.438Z,19.50
2018-03-29T02:56:34.449Z,19.10
2018-03-29T02:58:27.401Z,19.00
2018-03-29T02:59:27.387Z,19.10
2018-03-29T03:01:20.309Z,19.00
2018-03-29T03:02:20.318Z,19.90
2018-03-29T05:03:07.378Z,13.00
2018-03-29T05:04:07.354Z,20.70
2018-03-29T05:06:00.296Z,23.90
2018-03-29T05:07:00.273Z,24.40
2018-03-29T05:08:53.200Z,25.00
2018-03-29T05:09:53.192Z,25.10
2018-03-29T05:11:46.119Z,25.40
2018-03-29T05:12:46.122Z,25.40
2018-03-29T05:14:39.049Z,25.60
2018-03-29T05:15:39.042Z,25.00
2018-03-29T05:17:31.963Z,25.90
2018-03-29T05:18:31.968Z,25.30
2018-03-29T05:20:25.395Z,26.00
2018-03-29T05:21:25.380Z,26.70
2018-03-29T05:23:18.311Z,26.20
2018-03-29T05:24:18.342Z,26.70
2018-03-29T05:26:11.270Z,27.80
2018-03-29T05:27:11.257Z,26.60
2018-03-29T05:29:04.191Z,25.90
2018-03-29T05:30:04.184Z,26.50
2018-03-29T05:31:57.108Z,26.80
2018-03-29T05:32:57.110Z,27.20
2018-03-29T05:34:50.053Z,26.50
2018-03-29T05:35:50.045Z,27.40
2018-03-29T05:37:42.970Z,27.70
2018-03-29T05:38:42.977Z,26.90
2018-03-29T05:40:35.927Z,27.20
2018-03-29T05:41:35.917Z,29.00
2018-03-29T05:43:28.843Z,28.60
2018-03-29T05:44:28.867Z,27.30
2018-03-29T05:46:21.795Z,27.90
2018-03-29T05:47:21.783Z,27.00
2018-03-29T05:49:14.731Z,27.70
2018-03-29T05:50:14.727Z,27.30
2018-03-29T05:52:07.651Z,28.30
2018-03-29T05:53:07.657Z,27.80
2018-03-29T05:55:00.619Z,28.80
2018-03-29T05:56:00.619Z,29.10
2018-03-29T05:57:53.516Z,29.40
2018-03-29T05:58:53.522Z,30.90
2018-03-29T06:00:46.468Z,30.90
2018-03-29T06:01:46.456Z,30.60
2018-03-29T06:03:39.379Z,29.50
2018-03-29T06:04:39.389Z,29.40
2018-03-29T06:06:32.337Z,30.00
2018-03-29T06:07:32.327Z,29.50
2018-03-29T06:09:25.274Z,31.30
2018-03-29T06:10:25.275Z,30.20
2018-03-29T06:12:18.211Z,30.00
2018-03-29T06:13:18.212Z,30.70
2018-03-29T06:15:11.167Z,29.90
2018-03-29T06:16:11.148Z,30.70
2018-03-29T06:18:04.066Z,30.00
2018-03-29T06:19:04.074Z,30.00
2018-03-29T06:20:57.022Z,31.70
2018-03-29T06:21:57.012Z,31.00
2018-03-29T06:23:49.931Z,30.70
2018-03-29T06:24:49.938Z,30.50
2018-03-29T06:26:42.881Z,30.20
2018-03-29T06:27:42.868Z,31.80
2018-03-29T06:29:35.826Z,30.40
2018-03-29T06:30:35.804Z,31.40
2018-03-29T06:32:28.737Z,30.40
2018-03-29T06:33:28.748Z,30.60
2018-03-29T06:35:21.688Z,31.30
2018-03-29T06:36:21.683Z,30.90
2018-03-29T06:38:14.610Z,30.60
2018-03-29T06:39:14.613Z,29.90
2018-03-29T06:41:07.556Z,29.40
2018-03-29T06:42:07.546Z,29.10
2018-03-29T06:44:00.502Z,31.20
2018-03-29T06:45:00.486Z,28.80
2018-03-29T06:46:53.933Z,29.10
2018-03-29T06:47:53.921Z,29.60
2018-03-29T06:49:46.863Z,28.30
2018-03-29T06:50:46.857Z,29.10
2018-03-29T06:52:39.795Z,27.90
2018-03-29T06:53:39.790Z,29.00
2018-03-29T06:55:32.727Z,28.50
2018-03-29T06:56:32.714Z,29.00
2018-03-29T06:58:25.660Z,27.50
2018-03-29T06:59:25.682Z,26.50
2018-03-29T07:01:18.610Z,26.60
2018-03-29T07:02:18.595Z,26.40
2018-03-29T07:04:11.520Z,27.10
2018-03-29T07:05:11.522Z,27.80
2018-03-29T07:07:04.465Z,25.70
2018-03-29T07:08:04.458Z,26.90
2018-03-29T07:09:57.461Z,26.50
2018-03-29T07:10:57.468Z,25.50
2018-03-29T07:12:50.418Z,26.00
2018-03-29T07:13:50.418Z,25.40
2018-03-29T07:15:43.392Z,26.00
2018-03-29T07:16:43.346Z,25.70
2018-03-29T07:18:36.266Z,26.10
2018-03-29T07:19:36.275Z,25.80
2018-03-29T07:21:29.216Z,25.70
2018-03-29T07:22:29.208Z,26.40
2018-03-29T07:24:22.134Z,25.70
2018-03-29T07:25:22.143Z,25.70
2018-03-29T07:27:15.193Z,26.80
2018-03-29T07:28:15.210Z,25.90
2018-03-29T07:30:08.109Z,26.80
2018-03-29T07:31:08.108Z,27.50
2018-03-29T07:33:01.043Z,26.80
2018-03-29T07:34:01.034Z,26.90
2018-03-29T07:35:53.981Z,26.30
2018-03-29T07:36:53.976Z,26.60
2018-03-29T07:38:46.895Z,27.80
2018-03-29T07:39:46.907Z,27.00
2018-03-29T07:41:40.363Z,26.00
2018-03-29T07:42:40.348Z,26.00
2018-03-29T07:44:33.287Z,26.30
2018-03-29T07:45:33.284Z,26.40
2018-03-29T07:47:26.232Z,27.20
2018-03-29T07:48:26.224Z,26.50
2018-03-29T07:50:19.142Z,26.40
2018-03-29T07:51:19.153Z,26.40
2018-03-29T07:53:12.155Z,26.70
2018-03-29T07:54:12.103Z,26.90
2018-03-29T07:56:05.053Z,25.70
2018-03-29T07:57:05.038Z,25.90
2018-03-29T07:58:57.971Z,25.60
2018-03-29T07:59:57.981Z,25.70
2018-03-29T08:01:50.930Z,26.50
2018-03-29T08:02:50.917Z,26.30
2018-03-29T08:04:43.839Z,25.80
2018-03-29T08:05:43.850Z,26.40
2018-03-29T08:07:36.798Z,27.40
2018-03-29T08:08:36.788Z,26.90
2018-03-29T08:10:29.727Z,26.30
2018-03-29T08:11:29.729Z,25.50
2018-03-29T08:13:22.682Z,26.40
2018-03-29T08:14:22.661Z,26.60
2018-03-29T08:16:15.616Z,27.00
2018-03-29T08:17:15.607Z,27.10
2018-03-29T08:19:08.531Z,25.80
2018-03-29T08:20:08.548Z,27.50
2018-03-29T08:22:01.486Z,27.90
2018-03-29T08:23:01.478Z,25.70
2018-03-29T08:24:54.899Z,26.50
2018-03-29T08:25:54.910Z,26.70
2018-03-29T08:27:47.866Z,26.80
2018-03-29T08:28:47.837Z,26.90
2018-03-29T08:30:41.760Z,26.00
2018-03-29T08:31:41.777Z,26.00
2018-03-29T08:33:34.738Z,26.10
2018-03-29T08:34:34.713Z,25.60
2018-03-29T08:36:27.686Z,24.60
2018-03-29T08:37:27.678Z,24.90
2018-03-29T08:39:20.617Z,23.20
2018-03-29T08:40:20.622Z,23.60
2018-03-29T08:42:13.567Z,23.70
2018-03-29T08:43:13.557Z,22.90
2018-03-29T08:45:06.484Z,22.60
2018-03-29T08:46:06.498Z,21.60
2018-03-29T08:47:59.459Z,22.60
2018-03-29T08:48:59.448Z,21.00
2018-03-29T08:50:52.700Z,20.00
2018-03-29T08:51:52.390Z,19.30
2018-03-29T08:53:45.396Z,20.90
2018-03-29T08:54:45.350Z,21.00
2018-03-29T08:56:38.275Z,20.10
2018-03-29T08:57:38.275Z,20.50
2018-03-29T08:59:31.210Z,20.50
2018-03-29T09:00:31.228Z,20.60
2018-03-29T09:02:24.190Z,20.20
2018-03-29T09:03:24.181Z,20.90
2018-03-29T09:05:17.119Z,20.30
2018-03-29T09:06:17.130Z,20.80
2018-03-29T09:08:10.076Z,19.40
2018-03-29T09:09:10.070Z,17.90
2018-03-29T09:11:03.005Z,19.30
2018-03-29T09:12:03.015Z,19.30
2018-03-29T09:13:55.962Z,19.80
2018-03-29T09:14:55.952Z,18.60
2018-03-29T09:16:48.880Z,19.80
2018-03-29T09:17:48.899Z,19.80
2018-03-29T09:19:41.838Z,19.00
2018-03-29T09:20:41.836Z,19.90
2018-03-29T09:22:34.788Z,18.90
2018-03-29T09:23:34.774Z,19.60
2018-03-29T09:25:27.705Z,18.60
2018-03-29T09:26:27.718Z,19.50
2018-03-29T09:28:20.665Z,19.70
2018-03-29T09:29:20.672Z,18.90
2018-03-29T09:31:13.634Z,17.40
2018-03-29T09:32:13.621Z,17.10
2018-03-29T09:34:06.562Z,18.30
2018-03-29T09:35:06.550Z,17.90
2018-03-29T09:36:59.479Z,17.50
2018-03-29T09:37:59.494Z,17.10
2018-03-29T09:39:52.442Z,17.90
2018-03-29T09:40:52.439Z,17.00
2018-03-29T09:42:45.394Z,16.90
2018-03-29T09:43:45.386Z,17.70
2018-03-29T09:45:38.333Z,17.20
2018-03-29T09:46:38.323Z,17.50
2018-03-29T09:48:31.271Z,16.70
2018-03-29T09:49:31.264Z,16.80
2018-03-29T09:51:24.207Z,17.00
2018-03-29T09:52:24.210Z,17.30
2018-03-29T09:54:17.159Z,16.20
2018-03-29T09:55:17.152Z,16.70
2018-03-29T09:57:10.084Z,16.90
2018-03-29T09:58:10.099Z,16.10
2018-03-29T10:00:03.049Z,15.70
2018-03-29T10:01:03.044Z,16.20
2018-03-29T10:02:56.001Z,15.20
2018-03-29T10:03:55.994Z,15.50
2018-03-29T10:05:48.932Z,15.50
2018-03-29T10:06:48.944Z,16.20
2018-03-29T10:08:41.949Z,15.40
2018-03-29T10:09:41.890Z,15.60
2018-03-29T10:11:34.823Z,15.00
2018-03-29T10:12:34.836Z,14.40
2018-03-29T10:14:27.789Z,14.50
2018-03-29T10:15:27.799Z,15.00
2018-03-29T10:17:20.776Z,15.50
2018-03-29T10:18:20.738Z,15.20
2018-03-29T10:20:13.688Z,14.40
2018-03-29T10:21:13.685Z,14.90
2018-03-29T10:23:06.639Z,12.80
2018-03-29T10:24:06.634Z,12.70
2018-03-29T10:25:59.565Z,11.60
2018-03-29T10:26:59.607Z,11.70
2018-03-29T10:28:52.539Z,11.80
2018-03-29T10:29:52.531Z,11.40
2018-03-29T10:31:45.465Z,12.00
2018-03-29T10:32:45.471Z,12.20
2018-03-29T10:34:38.443Z,12.10
2018-03-29T10:35:38.450Z,12.20
2018-03-29T10:37:31.357Z,12.00
2018-03-29T10:38:31.378Z,12.50
2018-03-29T10:40:24.325Z,11.60
2018-03-29T10:41:24.321Z,11.30
2018-03-29T10:43:17.272Z,12.50
2018-03-29T10:44:17.264Z,13.50
2018-03-29T10:46:10.205Z,12.70
2018-03-29T10:47:10.216Z,12.20
2018-03-29T10:49:03.171Z,12.30
2018-03-29T10:50:03.176Z,11.70
2018-03-29T10:51:56.100Z,12.00
2018-03-29T10:52:56.117Z,12.30
2018-03-29T10:54:49.065Z,11.70
2018-03-29T10:55:49.059Z,10.70
2018-03-29T10:57:41.988Z,10.20
2018-03-29T10:58:41.999Z,9.50
2018-03-29T11:00:34.960Z,9.50
2018-03-29T11:01:34.953Z,9.40
2018-03-29T11:03:27.913Z,9.10
2018-03-29T11:04:27.909Z,9.70
2018-03-29T11:06:20.843Z,9.40
2018-03-29T11:07:20.857Z,9.00
2018-03-29T11:09:13.825Z,9.40
2018-03-29T11:10:13.804Z,10.10
2018-03-29T11:12:06.730Z,8.80
2018-03-29T11:13:06.744Z,8.80
2018-03-29T11:14:59.696Z,9.00
2018-03-29T11:15:59.686Z,9.00
2018-03-29T11:17:52.622Z,8.50
2018-03-29T11:18:52.631Z,8.70
2018-03-29T11:20:45.583Z,9.30
2018-03-29T11:21:45.578Z,8.60
2018-03-29T11:23:38.507Z,8.10
2018-03-29T11:24:38.520Z,8.60
2018-03-29T11:26:31.469Z,8.90
2018-03-29T11:27:31.465Z,10.90
2018-03-29T11:29:24.414Z,10.10
2018-03-29T11:30:24.406Z,10.30
2018-03-29T11:32:17.337Z,10.00
2018-03-29T11:33:17.351Z,10.40
2018-03-29T11:35:10.299Z,9.10
2018-03-29T11:36:10.295Z,9.30
2018-03-29T11:38:03.224Z,6.00
2018-03-29T11:39:03.246Z,5.30
2018-03-29T11:40:56.196Z,5.20
2018-03-29T11:41:56.184Z,5.30
2018-03-29T11:43:49.110Z,5.10
2018-03-29T11:44:49.129Z,5.00
2018-03-29T11:46:42.079Z,5.10
2018-03-29T11:47:42.071Z,5.20
2018-03-29T11:49:35.019Z,4.30
2018-03-29T11:50:35.011Z,4.70
2018-03-29T11:52:27.940Z,4.60
2018-03-29T11:53:27.958Z,4.70
2018-03-29T11:55:20.903Z,4.70
2018-03-29T11:56:20.899Z,4.80
2018-03-29T11:58:13.831Z,4.20
2018-03-29T11:59:13.848Z,4.30
2018-03-29T12:01:06.795Z,4.10
2018-03-29T12:02:06.790Z,4.10
2018-03-29T12:03:59.723Z,3.80
2018-03-29T12:04:59.736Z,4.20
2018-03-29T12:06:52.695Z,4.10
2018-03-29T12:07:52.686Z,3.90
2018-03-29T12:09:45.634Z,3.90
2018-03-29T12:10:45.619Z,3.90
2018-03-29T12:12:38.554Z,3.40
2018-03-29T12:13:38.568Z,3.40
2018-03-29T12:15:31.514Z,3.30
2018-03-29T12:16:31.517Z,3.30
2018-03-29T12:18:24.438Z,3.10
2018-03-29T12:19:24.457Z,3.10
2018-03-29T12:21:17.398Z,3.60
2018-03-29T12:22:17.399Z,3.60
2018-03-29T12:24:10.332Z,3.90
2018-03-29T12:25:10.346Z,3.60
2018-03-29T12:27:03.299Z,3.50
2018-03-29T12:28:03.294Z,3.90
2018-03-29T12:29:56.295Z,3.70
2018-03-29T12:30:56.290Z,3.90
2018-03-29T12:32:49.750Z,4.70
2018-03-29T12:33:49.234Z,4.10
2018-03-29T12:35:42.196Z,4.40
2018-03-29T12:36:42.186Z,4.80
2018-03-29T12:38:35.121Z,4.50
2018-03-29T12:39:35.141Z,4.70
2018-03-29T12:41:28.097Z,4.70
2018-03-29T12:42:28.087Z,4.80
2018-03-29T12:44:21.021Z,5.10
2018-03-29T12:45:21.039Z,4.70
2018-03-29T12:47:13.994Z,4.80
2018-03-29T12:48:13.991Z,4.80
2018-03-29T12:50:06.951Z,4.60
2018-03-29T12:51:06.942Z,4.80
2018-03-29T12:52:59.881Z,4.60
2018-03-29T12:53:59.909Z,4.50
2018-03-29T12:55:52.837Z,4.60
2018-03-29T12:56:52.829Z,4.60
2018-03-29T12:58:45.772Z,4.80
2018-03-29T12:59:45.782Z,4.50
2018-03-29T13:01:38.737Z,4.80
2018-03-29T13:02:38.732Z,5.00
2018-03-29T13:04:31.671Z,5.30
2018-03-29T13:05:31.692Z,5.50
2018-03-29T13:07:24.644Z,5.20
2018-03-29T13:08:24.639Z,5.60
2018-03-29T13:10:17.575Z,5.40
2018-03-29T13:11:17.590Z,5.60
2018-03-29T13:13:10.547Z,5.60
2018-03-29T13:14:10.542Z,5.50
2018-03-29T13:16:03.499Z,5.70
2018-03-29T13:17:03.501Z,5.50
2018-03-29T13:18:56.427Z,5.60
2018-03-29T13:19:56.438Z,5.60
2018-03-29T13:21:49.390Z,5.90
2018-03-29T13:22:49.389Z,5.50
2018-03-29T13:24:42.316Z,5.70
2018-03-29T13:25:42.334Z,5.50
2018-03-29T13:27:35.297Z,5.30
2018-03-29T13:28:35.304Z,5.20
2018-03-29T13:30:28.218Z,5.80
2018-03-29T13:31:28.238Z,5.40
2018-03-29T13:33:21.191Z,6.20
2018-03-29T13:34:21.186Z,6.20
2018-03-29T13:36:14.140Z,5.90
2018-03-29T13:37:14.131Z,5.50
2018-03-29T13:39:07.064Z,5.60
2018-03-29T13:40:07.077Z,5.90
2018-03-29T13:42:00.038Z,6.10
2018-03-29T13:43:00.029Z,6.00
2018-03-29T13:44:52.961Z,5.50
2018-03-29T13:45:52.971Z,5.60
2018-03-29T13:47:45.926Z,5.60
2018-03-29T13:48:45.920Z,5.80
2018-03-29T13:50:38.854Z,5.30
2018-03-29T13:51:38.872Z,5.30
2018-03-29T13:53:31.824Z,5.00
2018-03-29T13:54:31.813Z,4.90
2018-03-29T13:56:24.773Z,4.40
2018-03-29T13:57:24.764Z,4.20
2018-03-29T13:59:17.707Z,4.10
2018-03-29T14:00:17.722Z,3.70
2018-03-29T14:02:10.675Z,4.30
2018-03-29T14:03:10.673Z,4.00
2018-03-29T14:05:03.618Z,3.80
2018-03-29T14:06:03.626Z,3.70
2018-03-29T14:07:56.580Z,3.70
2018-03-29T14:08:56.581Z,4.00
2018-03-29T14:10:49.511Z,3.50
2018-03-29T14:11:49.533Z,3.60
2018-03-29T14:13:42.487Z,3.70
2018-03-29T14:14:42.535Z,3.90
2018-03-29T14:16:35.434Z,3.60
2018-03-29T14:17:35.428Z,3.90
2018-03-29T14:19:28.364Z,4.00
2018-03-29T14:20:28.380Z,3.90
2018-03-29T14:22:21.832Z,3.80
2018-03-29T14:23:21.826Z,4.00
2018-03-29T14:25:14.757Z,3.40
2018-03-29T14:26:14.778Z,3.70
2018-03-29T14:28:07.744Z,3.80
2018-03-29T14:29:07.738Z,3.70
2018-03-29T14:31:00.676Z,3.50
2018-03-29T14:32:00.689Z,3.30
2018-03-29T14:33:53.648Z,2.90
2018-03-29T14:34:53.646Z,3.60
2018-03-29T14:36:46.574Z,3.30
2018-03-29T14:37:46.588Z,3.50
2018-03-29T14:39:39.546Z,3.30
2018-03-29T14:40:39.538Z,3.50
2018-03-29T14:42:32.495Z,3.50
2018-03-29T14:43:32.490Z,3.60
2018-03-29T14:45:25.425Z,3.90
2018-03-29T14:46:25.446Z,3.50
2018-03-29T14:48:18.401Z,3.30
2018-03-29T14:49:18.388Z,3.30
2018-03-29T14:51:11.324Z,3.50
2018-03-29T14:52:11.336Z,3.00
2018-03-29T14:54:04.291Z,3.30
2018-03-29T14:55:04.294Z,3.30
2018-03-29T14:56:57.222Z,3.30
2018-03-29T14:57:57.241Z,3.70
2018-03-29T14:59:50.187Z,3.50
2018-03-29T15:00:50.179Z,3.20
2018-03-29T15:02:43.135Z,3.50
2018-03-29T15:03:43.127Z,3.30
2018-03-29T15:05:36.064Z,3.70
2018-03-29T15:06:36.101Z,3.40
2018-03-29T15:08:29.036Z,3.50
2018-03-29T15:09:29.034Z,3.20
2018-03-29T15:11:21.966Z,3.40
2018-03-29T15:12:21.980Z,3.10
2018-03-29T15:14:14.939Z,3.30
2018-03-29T15:15:14.928Z,3.10
2018-03-29T15:17:07.859Z,3.40
2018-03-29T15:18:07.870Z,3.20
2018-03-29T15:20:00.829Z,3.40
2018-03-29T15:21:00.822Z,3.30
2018-03-29T15:22:53.770Z,3.50
2018-03-29T15:23:53.762Z,3.40
2018-03-29T15:25:46.697Z,3.50
2018-03-29T15:26:46.706Z,3.60
2018-03-29T15:28:39.656Z,3.30
2018-03-29T15:29:39.649Z,3.30
2018-03-29T15:31:32.640Z,3.70
2018-03-29T15:32:32.599Z,3.50
2018-03-29T15:34:25.558Z,3.40
2018-03-29T15:35:25.551Z,3.40
2018-03-29T15:37:18.493Z,3.20
2018-03-29T15:38:18.502Z,3.60
2018-03-29T15:40:11.453Z,3.40
2018-03-29T15:41:11.445Z,3.00
2018-03-29T15:43:04.398Z,3.10
2018-03-29T15:44:04.389Z,3.10
2018-03-29T15:45:57.323Z,2.90
2018-03-29T15:46:57.335Z,3.10
2018-03-29T15:48:50.286Z,3.10
2018-03-29T15:49:50.279Z,3.20
2018-03-29T15:51:43.218Z,2.80
2018-03-29T15:52:43.223Z,3.20
2018-03-29T15:54:36.183Z,3.00
2018-03-29T15:55:36.169Z,3.00
2018-03-29T15:57:29.098Z,3.10
2018-03-29T15:58:29.113Z,3.10
2018-03-29T16:00:22.096Z,3.50
2018-03-29T16:01:22.058Z,3.50
2018-03-29T16:03:15.009Z,3.40
2018-03-29T16:04:15.000Z,3.50
2018-03-29T16:06:07.935Z,3.40
2018-03-29T16:07:07.987Z,3.50
2018-03-29T16:09:00.914Z,3.10
2018-03-29T16:10:00.905Z,2.80
2018-03-29T16:11:53.837Z,2.90
2018-03-29T16:12:53.857Z,3.10
2018-03-29T16:14:46.819Z,3.20
2018-03-29T16:15:46.819Z,2.90
2018-03-29T16:17:39.751Z,3.00
2018-03-29T16:18:39.765Z,3.00
2018-03-29T16:20:32.718Z,3.40
2018-03-29T16:21:32.721Z,2.70
2018-03-29T16:23:25.666Z,2.70
2018-03-29T16:24:25.687Z,2.80
2018-03-29T16:26:18.587Z,2.80
2018-03-29T16:27:18.601Z,2.90
2018-03-29T16:29:11.553Z,2.90
2018-03-29T16:30:11.555Z,2.60
2018-03-29T16:32:04.531Z,2.80
2018-03-29T16:33:04.493Z,2.70
2018-03-29T16:34:57.461Z,2.40
2018-03-29T16:35:57.449Z,2.60
2018-03-29T16:37:50.382Z,2.60
2018-03-29T16:38:50.394Z,2.80
2018-03-29T16:40:44.064Z,2.40
2018-03-29T16:41:44.051Z,2.70
2018-03-29T16:43:37.012Z,2.70
2018-03-29T16:44:36.992Z,2.60
2018-03-29T16:46:29.929Z,2.70
2018-03-29T16:47:29.942Z,3.00
2018-03-29T16:49:22.889Z,2.60
2018-03-29T16:50:22.883Z,2.80
2018-03-29T16:52:15.822Z,3.00
2018-03-29T16:53:15.826Z,2.80
2018-03-29T16:55:08.772Z,3.10
2018-03-29T16:56:08.765Z,2.90
2018-03-29T16:58:01.704Z,2.60
2018-03-29T16:59:01.711Z,2.60
2018-03-29T17:00:54.658Z,2.80
2018-03-29T17:01:54.659Z,2.60
2018-03-29T17:03:47.589Z,2.70
2018-03-29T17:04:47.605Z,2.70
2018-03-29T17:06:40.551Z,3.50
2018-03-29T17:07:40.543Z,3.20
2018-03-29T17:09:33.493Z,3.00
2018-03-29T17:10:33.486Z,2.90
2018-03-29T17:12:26.418Z,3.00
2018-03-29T17:13:26.431Z,2.80
2018-03-29T17:15:19.385Z,3.20
2018-03-29T17:16:19.373Z,2.80
2018-03-29T17:18:12.302Z,2.80
2018-03-29T17:19:12.316Z,3.00
2018-03-29T17:21:05.265Z,3.60
2018-03-29T17:22:05.265Z,3.40
2018-03-29T17:23:58.191Z,3.90
2018-03-29T17:24:58.199Z,3.60
2018-03-29T17:26:51.152Z,4.10
2018-03-29T17:27:51.141Z,3.80
2018-03-29T17:29:44.097Z,3.50
2018-03-29T17:30:44.088Z,3.60
2018-03-29T17:32:37.015Z,3.70
2018-03-29T17:33:37.027Z,3.30
2018-03-29T17:35:29.979Z,3.20
2018-03-29T17:36:29.989Z,3.50
2018-03-29T17:38:22.911Z,4.00
2018-03-29T17:39:22.915Z,4.20
2018-03-29T17:41:15.919Z,3.80
2018-03-29T17:42:15.860Z,4.60
2018-03-29T17:44:08.780Z,4.10
2018-03-29T17:45:08.790Z,3.50
2018-03-29T17:47:01.741Z,3.80
2018-03-29T17:48:01.733Z,3.50
2018-03-29T17:49:54.680Z,2.90
2018-03-29T17:50:54.670Z,3.10
2018-03-29T17:52:47.608Z,3.40
2018-03-29T17:53:47.616Z,3.50
2018-03-29T17:55:40.564Z,3.90
2018-03-29T17:56:40.559Z,3.40
2018-03-29T17:58:33.480Z,3.70
2018-03-29T17:59:33.495Z,3.90
2018-03-29T18:01:26.453Z,4.30
2018-03-29T18:02:26.433Z,4.30
2018-03-29T18:04:19.360Z,4.40
2018-03-29T18:05:19.375Z,4.60
2018-03-29T18:07:12.334Z,4.00
2018-03-29T18:08:12.309Z,3.70
2018-03-29T18:10:05.258Z,3.80
2018-03-29T18:11:05.246Z,3.90
2018-03-29T18:12:58.220Z,4.20
2018-03-29T18:13:58.193Z,4.40
2018-03-29T18:15:51.132Z,4.80
2018-03-29T18:16:51.125Z,5.40
2018-03-29T18:18:44.051Z,5.00
2018-03-29T18:19:44.062Z,5.10
2018-03-29T18:21:37.009Z,5.50
2018-03-29T18:22:37.001Z,5.40
2018-03-29T18:24:29.934Z,5.20
2018-03-29T18:25:29.932Z,5.00
2018-03-29T18:27:22.886Z,4.80
2018-03-29T18:28:22.882Z,4.50
2018-03-29T18:30:15.861Z,4.50
2018-03-29T18:31:15.812Z,4.30
2018-03-29T18:33:08.740Z,4.90
2018-03-29T18:34:08.747Z,5.10
2018-03-29T18:36:01.701Z,5.20
2018-03-29T18:37:01.686Z,5.70
2018-03-29T18:38:54.621Z,5.50
2018-03-29T18:39:54.639Z,5.20
2018-03-29T18:41:47.573Z,4.80
2018-03-29T18:42:47.564Z,5.70
2018-03-29T18:44:40.492Z,5.00
2018-03-29T18:45:40.502Z,5.40
2018-03-29T18:47:33.465Z,4.90
2018-03-29T18:48:33.446Z,5.10
2018-03-29T18:50:26.394Z,4.10
2018-03-29T18:51:26.392Z,3.90
2018-03-29T18:53:19.315Z,7.70
2018-03-29T18:54:19.327Z,10.90
2018-03-29T18:56:12.265Z,14.30
2018-03-29T18:57:12.258Z,11.30
2018-03-29T18:59:05.195Z,6.80
2018-03-29T19:00:05.197Z,6.60
2018-03-29T19:01:58.144Z,7.50
2018-03-29T19:02:58.139Z,9.00
2018-03-29T19:04:51.058Z,6.10
2018-03-29T19:05:51.069Z,6.30
2018-03-29T19:07:44.012Z,6.80
2018-03-29T19:08:44.006Z,9.40
2018-03-29T19:10:36.927Z,8.60
2018-03-29T19:11:36.940Z,9.10
2018-03-29T19:13:29.883Z,7.30
2018-03-29T19:14:29.876Z,6.90
2018-03-29T19:16:22.830Z,8.30
2018-03-29T19:17:22.816Z,7.60
2018-03-29T19:19:15.737Z,7.00
2018-03-29T19:20:15.743Z,6.80
2018-03-29T19:22:09.187Z,5.80
2018-03-29T19:23:09.174Z,5.90
2018-03-29T19:25:02.097Z,6.40
2018-03-29T19:26:02.108Z,8.50
2018-03-29T19:27:55.058Z,7.70
2018-03-29T19:28:55.050Z,6.80
2018-03-29T19:30:47.978Z,5.80
2018-03-29T19:31:47.991Z,6.10
2018-03-29T19:33:40.938Z,5.80
2018-03-29T19:34:40.926Z,6.10
2018-03-29T19:36:33.874Z,6.10
2018-03-29T19:37:33.864Z,6.40
2018-03-29T19:39:26.789Z,6.40
2018-03-29T19:40:26.800Z,6.20
2018-03-29T19:42:19.744Z,8.20
2018-03-29T19:43:19.735Z,8.80
2018-03-29T19:45:12.659Z,7.80
2018-03-29T19:46:12.677Z,8.10
2018-03-29T19:48:05.609Z,11.20
2018-03-29T19:49:05.601Z,9.10
2018-03-29T19:50:58.534Z,6.80
2018-03-29T19:51:58.537Z,6.70
2018-03-29T19:53:51.499Z,7.30
2018-03-29T19:54:51.509Z,8.30
2018-03-29T19:56:44.417Z,7.50
2018-03-29T19:57:44.406Z,7.30
2018-03-29T19:59:37.331Z,11.80
2018-03-29T20:00:37.345Z,9.80
2018-03-29T20:02:30.287Z,8.90
2018-03-29T20:03:30.278Z,8.60
2018-03-29T20:05:23.214Z,7.90
2018-03-29T20:06:23.218Z,9.00
2018-03-29T20:08:16.153Z,10.30
2018-03-29T20:09:16.145Z,9.00
2018-03-29T20:11:09.066Z,10.00
2018-03-29T20:12:09.076Z,9.00
2018-03-29T20:14:02.020Z,7.50
2018-03-29T20:15:02.006Z,7.70
2018-03-29T20:16:54.997Z,7.80
2018-03-29T20:17:54.950Z,7.80
2018-03-29T20:19:47.928Z,7.80
2018-03-29T20:20:47.884Z,7.70
2018-03-29T20:22:40.841Z,7.80
2018-03-29T20:23:40.832Z,7.20
2018-03-29T20:25:33.753Z,7.10
2018-03-29T20:26:33.762Z,7.60
2018-03-29T20:28:26.710Z,8.00
2018-03-29T20:29:26.700Z,7.50
2018-03-29T20:31:19.623Z,7.20
2018-03-29T20:32:19.634Z,7.40
2018-03-29T20:34:12.577Z,7.20
2018-03-29T20:35:12.571Z,7.60
2018-03-29T20:37:05.516Z,7.40
2018-03-29T20:38:05.509Z,8.10
2018-03-29T20:39:58.426Z,7.50
2018-03-29T20:40:58.440Z,7.70
2018-03-29T20:42:51.385Z,8.80
2018-03-29T20:43:51.375Z,7.10
2018-03-29T20:45:44.303Z,7.60
2018-03-29T20:46:44.312Z,7.70
2018-03-29T20:48:37.261Z,8.90
2018-03-29T20:49:37.252Z,8.30
2018-03-29T20:51:30.177Z,8.30